sensor_id;sensor_type;location;lat;lon;timestamp;pressure;altitude;pressure_sealevel;temperature;humidity
9091;BME280;4581;42.416;25.598;2023-07-22T00:01:50;98303.94;;;25.70;nan
9091;BME280;4581;42.416;25.598;2023-07-22T00:04:17;98297.88;;;25.63;nan
9091;BME280;4581;42.416;25.598;2023-07-22T00:06:43;98298.97;;;25.61;nan
9091;BME280;4581;42.416;25.598;2023-07-22T00:09:10;98307.81;;;25.58;nan
9091;BME280;4581;42.416;25.598;2023-07-22T00:11:37;98300.91;;;25.51;nan
9091;BME280;4581;42.416;25.598;2023-07-22T00:14:03;98293.72;;;25.50;nan
9091;BME280;4581;42.416;25.598;2023-07-22T00:16:32;98290.38;;;25.48;nan
9091;BME280;4581;42.416;25.598;2023-07-22T00:18:59;98297.56;;;25.49;nan
9091;BME280;4581;42.416;25.598;2023-07-22T00:21:27;98293.72;;;25.50;nan
9091;BME280;4581;42.416;25.598;2023-07-22T00:23:54;98305.03;;;25.48;nan
9091;BME280;4581;42.416;25.598;2023-07-22T00:26:21;98292.59;;;25.46;nan
9091;BME280;4581;42.416;25.598;2023-07-22T00:28:48;98297.28;;;25.40;nan
9091;BME280;4581;42.416;25.598;2023-07-22T00:31:15;98304.47;;;25.36;nan
9091;BME280;4581;42.416;25.598;2023-07-22T00:33:42;98300.06;;;25.40;nan
9091;BME280;4581;42.416;25.598;2023-07-22T00:36:08;98287.91;;;25.36;nan
9091;BME280;4581;42.416;25.598;2023-07-22T00:38:35;98286.25;;;25.40;nan
9091;BME280;4581;42.416;25.598;2023-07-22T00:41:02;98282.13;;;25.38;nan
9091;BME280;4581;42.416;25.598;2023-07-22T00:43:31;98277.69;;;25.37;nan
9091;BME280;4581;42.416;25.598;2023-07-22T00:45:58;98284.31;;;25.36;nan
9091;BME280;4581;42.416;25.598;2023-07-22T00:48:27;98288.22;;;25.35;nan
9091;BME280;4581;42.416;25.598;2023-07-22T00:50:54;98289.31;;;25.34;nan
9091;BME280;4581;42.416;25.598;2023-07-22T00:53:21;98294.81;;;25.34;nan
9091;BME280;4581;42.416;25.598;2023-07-22T00:55:48;98292.88;;;25.29;nan
9091;BME280;4581;42.416;25.598;2023-07-22T00:58:15;98285.69;;;25.28;nan
9091;BME280;4581;42.416;25.598;2023-07-22T01:00:42;98285.16;;;25.26;nan
9091;BME280;4581;42.416;25.598;2023-07-22T01:03:09;98285.44;;;25.25;nan
9091;BME280;4581;42.416;25.598;2023-07-22T01:05:36;98276.03;;;25.21;nan
9091;BME280;4581;42.416;25.598;2023-07-22T01:08:04;98272.19;;;25.22;nan
9091;BME280;4581;42.416;25.598;2023-07-22T01:10:30;98273.03;;;25.22;nan
9091;BME280;4581;42.416;25.598;2023-07-22T01:12:57;98276.06;;;25.15;nan
9091;BME280;4581;42.416;25.598;2023-07-22T01:15:24;98271.91;;;25.13;nan
9091;BME280;4581;42.416;25.598;2023-07-22T01:17:51;98277.16;;;25.14;nan
9091;BME280;4581;42.416;25.598;2023-07-22T01:20:19;98282.94;;;25.13;nan
9091;BME280;4581;42.416;25.598;2023-07-22T01:22:51;98280.75;;;25.15;nan
9091;BME280;4581;42.416;25.598;2023-07-22T01:25:22;98277.44;;;25.13;nan
9091;BME280;4581;42.416;25.598;2023-07-22T01:27:52;98281.84;;;25.09;nan
9091;BME280;4581;42.416;25.598;2023-07-22T01:30:19;98284.59;;;25.04;nan
9091;BME280;4581;42.416;25.598;2023-07-22T01:32:46;98282.97;;;25.03;nan
9091;BME280;4581;42.416;25.598;2023-07-22T01:35:13;98282.13;;;25.02;nan
9091;BME280;4581;42.416;25.598;2023-07-22T01:37:41;98286.53;;;24.98;nan
9091;BME280;4581;42.416;25.598;2023-07-22T01:40:08;98279.34;;;24.92;nan
9091;BME280;4581;42.416;25.598;2023-07-22T01:42:41;98290.97;;;24.99;nan
9091;BME280;4581;42.416;25.598;2023-07-22T01:45:10;98298.13;;;24.95;nan
9091;BME280;4581;42.416;25.598;2023-07-22T01:47:38;98298.38;;;24.94;nan
9091;BME280;4581;42.416;25.598;2023-07-22T01:50:06;98294.78;;;24.93;nan
9091;BME280;4581;42.416;25.598;2023-07-22T01:52:34;98313.00;;;24.94;nan
9091;BME280;4581;42.416;25.598;2023-07-22T01:55:01;98315.22;;;24.87;nan
9091;BME280;4581;42.416;25.598;2023-07-22T01:57:27;98313.00;;;24.89;nan
9091;BME280;4581;42.416;25.598;2023-07-22T01:59:54;98299.72;;;24.81;nan
9091;BME280;4581;42.416;25.598;2023-07-22T02:02:21;98282.63;;;24.79;nan
9091;BME280;4581;42.416;25.598;2023-07-22T02:04:48;98267.94;;;24.63;nan
9091;BME280;4581;42.416;25.598;2023-07-22T02:07:14;98266.56;;;24.61;nan
9091;BME280;4581;42.416;25.598;2023-07-22T02:09:41;98271.00;;;24.62;nan
9091;BME280;4581;42.416;25.598;2023-07-22T02:12:08;98277.06;;;24.59;nan
9091;BME280;4581;42.416;25.598;2023-07-22T02:14:35;98278.97;;;24.63;nan
9091;BME280;4581;42.416;25.598;2023-07-22T02:17:01;98269.31;;;24.56;nan
9091;BME280;4581;42.416;25.598;2023-07-22T02:19:28;98284.75;;;24.57;nan
9091;BME280;4581;42.416;25.598;2023-07-22T02:21:55;98283.66;;;24.58;nan
9091;BME280;4581;42.416;25.598;2023-07-22T02:24:22;98286.97;;;24.55;nan
9091;BME280;4581;42.416;25.598;2023-07-22T02:26:49;98289.97;;;24.43;nan
9091;BME280;4581;42.416;25.598;2023-07-22T02:29:16;98289.13;;;24.38;nan
9091;BME280;4581;42.416;25.598;2023-07-22T02:31:44;98296.00;;;24.40;nan
9091;BME280;4581;42.416;25.598;2023-07-22T02:34:12;98294.06;;;24.36;nan
9091;BME280;4581;42.416;25.598;2023-07-22T02:36:39;98297.66;;;24.31;nan
9091;BME280;4581;42.416;25.598;2023-07-22T02:39:06;98299.53;;;24.26;nan
9091;BME280;4581;42.416;25.598;2023-07-22T02:41:36;98297.91;;;24.30;nan
9091;BME280;4581;42.416;25.598;2023-07-22T02:44:03;98300.09;;;24.22;nan
9091;BME280;4581;42.416;25.598;2023-07-22T02:46:30;98298.38;;;24.16;nan
9091;BME280;4581;42.416;25.598;2023-07-22T02:48:58;98294.22;;;24.14;nan
9091;BME280;4581;42.416;25.598;2023-07-22T02:51:27;98292.28;;;24.09;nan
9091;BME280;4581;42.416;25.598;2023-07-22T02:53:54;98290.88;;;24.07;nan
9091;BME280;4581;42.416;25.598;2023-07-22T02:56:21;98303.66;;;24.18;nan
9091;BME280;4581;42.416;25.598;2023-07-22T02:58:48;98320.44;;;24.16;nan
9091;BME280;4581;42.416;25.598;2023-07-22T03:01:14;98308.81;;;24.09;nan
9091;BME280;4581;42.416;25.598;2023-07-22T03:03:41;98296.63;;;24.00;nan
9091;BME280;4581;42.416;25.598;2023-07-22T03:06:08;98283.66;;;23.96;nan
9091;BME280;4581;42.416;25.598;2023-07-22T03:08:36;98270.72;;;23.96;nan
9091;BME280;4581;42.416;25.598;2023-07-22T03:11:03;98274.03;;;23.98;nan
9091;BME280;4581;42.416;25.598;2023-07-22T03:13:30;98286.72;;;24.04;nan
9091;BME280;4581;42.416;25.598;2023-07-22T03:15:57;98293.31;;;24.03;nan
9091;BME280;4581;42.416;25.598;2023-07-22T03:18:24;98280.44;;;24.14;nan
9091;BME280;4581;42.416;25.598;2023-07-22T03:20:51;98285.66;;;24.10;nan
9091;BME280;4581;42.416;25.598;2023-07-22T03:23:18;98285.06;;;24.03;nan
9091;BME280;4581;42.416;25.598;2023-07-22T03:25:47;98281.50;;;24.08;nan
9091;BME280;4581;42.416;25.598;2023-07-22T03:28:14;98282.34;;;24.08;nan
9091;BME280;4581;42.416;25.598;2023-07-22T03:30:40;98282.31;;;23.98;nan
9091;BME280;4581;42.416;25.598;2023-07-22T03:33:07;98289.44;;;23.99;nan
9091;BME280;4581;42.416;25.598;2023-07-22T03:35:34;98287.25;;;23.96;nan
9091;BME280;4581;42.416;25.598;2023-07-22T03:38:01;98284.47;;;23.96;nan
9091;BME280;4581;42.416;25.598;2023-07-22T03:40:28;98290.50;;;23.88;nan
9091;BME280;4581;42.416;25.598;2023-07-22T03:42:57;98273.97;;;23.83;nan
9091;BME280;4581;42.416;25.598;2023-07-22T03:45:24;98283.34;;;23.87;nan
9091;BME280;4581;42.416;25.598;2023-07-22T03:47:53;98296.34;;;23.97;nan
9091;BME280;4581;42.416;25.598;2023-07-22T03:50:20;98302.94;;;23.91;nan
9091;BME280;4581;42.416;25.598;2023-07-22T03:52:47;98309.81;;;23.93;nan
9091;BME280;4581;42.416;25.598;2023-07-22T03:55:14;98305.97;;;23.99;nan
9091;BME280;4581;42.416;25.598;2023-07-22T03:57:41;98306.81;;;24.00;nan
9091;BME280;4581;42.416;25.598;2023-07-22T04:00:08;98293.03;;;24.00;nan
9091;BME280;4581;42.416;25.598;2023-07-22T04:02:38;98299.97;;;24.07;nan
9091;BME280;4581;42.416;25.598;2023-07-22T04:05:05;98303.34;;;24.14;nan
9091;BME280;4581;42.416;25.598;2023-07-22T04:07:32;98308.91;;;24.24;nan
9091;BME280;4581;42.416;25.598;2023-07-22T04:09:59;98310.59;;;24.31;nan
9091;BME280;4581;42.416;25.598;2023-07-22T04:12:26;98318.88;;;24.41;nan
9091;BME280;4581;42.416;25.598;2023-07-22T04:14:52;98315.63;;;24.54;nan
9091;BME280;4581;42.416;25.598;2023-07-22T04:17:19;98310.44;;;24.62;nan
9091;BME280;4581;42.416;25.598;2023-07-22T04:19:46;98308.78;;;24.66;nan
9091;BME280;4581;42.416;25.598;2023-07-22T04:22:13;98312.38;;;24.72;nan
9091;BME280;4581;42.416;25.598;2023-07-22T04:24:39;98319.00;;;24.81;nan
9091;BME280;4581;42.416;25.598;2023-07-22T04:27:06;98302.72;;;24.80;nan
9091;BME280;4581;42.416;25.598;2023-07-22T04:29:34;98305.78;;;24.83;nan
9091;BME280;4581;42.416;25.598;2023-07-22T04:32:01;98316.56;;;24.85;nan
9091;BME280;4581;42.416;25.598;2023-07-22T04:34:31;98314.13;;;24.98;nan
9091;BME280;4581;42.416;25.598;2023-07-22T04:36:58;98317.69;;;25.04;nan
9091;BME280;4581;42.416;25.598;2023-07-22T04:39:25;98317.16;;;25.12;nan
9091;BME280;4581;42.416;25.598;2023-07-22T04:41:52;98319.38;;;25.20;nan
9091;BME280;4581;42.416;25.598;2023-07-22T04:44:19;98324.91;;;25.30;nan
9091;BME280;4581;42.416;25.598;2023-07-22T04:46:46;98330.69;;;25.29;nan
9091;BME280;4581;42.416;25.598;2023-07-22T04:49:13;98327.66;;;25.40;nan
9091;BME280;4581;42.416;25.598;2023-07-22T04:51:47;98325.75;;;25.46;nan
9091;BME280;4581;42.416;25.598;2023-07-22T04:54:14;98324.38;;;25.53;nan
9091;BME280;4581;42.416;25.598;2023-07-22T04:56:42;98320.81;;;25.63;nan
9091;BME280;4581;42.416;25.598;2023-07-22T04:59:09;98320.78;;;25.58;nan
9091;BME280;4581;42.416;25.598;2023-07-22T05:01:36;98318.56;;;25.70;nan
9091;BME280;4581;42.416;25.598;2023-07-22T05:04:03;98321.31;;;25.80;nan
9091;BME280;4581;42.416;25.598;2023-07-22T05:06:31;98318.28;;;25.87;nan
9091;BME280;4581;42.416;25.598;2023-07-22T05:08:59;98318.50;;;26.05;nan
9091;BME280;4581;42.416;25.598;2023-07-22T05:11:26;98314.59;;;26.17;nan
9091;BME280;4581;42.416;25.598;2023-07-22T05:13:53;98328.69;;;26.30;nan
9091;BME280;4581;42.416;25.598;2023-07-22T05:16:20;98331.09;;;26.47;nan
9091;BME280;4581;42.416;25.598;2023-07-22T05:18:48;98325.81;;;26.56;nan
9091;BME280;4581;42.416;25.598;2023-07-22T05:21:15;98330.00;;;26.48;nan
9091;BME280;4581;42.416;25.598;2023-07-22T05:23:41;98335.47;;;26.63;nan
9091;BME280;4581;42.416;25.598;2023-07-22T05:26:08;98338.66;;;26.80;nan
9091;BME280;4581;42.416;25.598;2023-07-22T05:28:35;98346.13;;;26.90;nan
9091;BME280;4581;42.416;25.598;2023-07-22T05:31:01;98339.66;;;27.05;nan
9091;BME280;4581;42.416;25.598;2023-07-22T05:33:28;98331.84;;;27.17;nan
9091;BME280;4581;42.416;25.598;2023-07-22T05:35:55;98330.09;;;27.31;nan
9091;BME280;4581;42.416;25.598;2023-07-22T05:38:22;98324.50;;;27.36;nan
9091;BME280;4581;42.416;25.598;2023-07-22T05:40:48;98335.19;;;27.53;nan
9091;BME280;4581;42.416;25.598;2023-07-22T05:43:15;98324.56;;;27.65;nan
9091;BME280;4581;42.416;25.598;2023-07-22T05:45:42;98333.75;;;27.60;nan
9091;BME280;4581;42.416;25.598;2023-07-22T05:48:09;98336.81;;;27.59;nan
9091;BME280;4581;42.416;25.598;2023-07-22T05:50:35;98335.38;;;27.61;nan
9091;BME280;4581;42.416;25.598;2023-07-22T05:53:03;98330.72;;;27.85;nan
9091;BME280;4581;42.416;25.598;2023-07-22T05:55:29;98334.47;;;28.00;nan
9091;BME280;4581;42.416;25.598;2023-07-22T05:57:56;98324.84;;;28.21;nan
9091;BME280;4581;42.416;25.598;2023-07-22T06:00:23;98322.38;;;28.19;nan
9091;BME280;4581;42.416;25.598;2023-07-22T06:02:50;98327.56;;;28.26;nan
9091;BME280;4581;42.416;25.598;2023-07-22T06:05:16;98328.09;;;28.28;nan
9091;BME280;4581;42.416;25.598;2023-07-22T06:07:43;98328.31;;;28.55;nan
9091;BME280;4581;42.416;25.598;2023-07-22T06:10:10;98334.31;;;28.62;nan
9091;BME280;4581;42.416;25.598;2023-07-22T06:12:37;98333.03;;;28.78;nan
9091;BME280;4581;42.416;25.598;2023-07-22T06:15:06;98330.41;;;29.06;nan
9091;BME280;4581;42.416;25.598;2023-07-22T06:17:33;98324.34;;;29.22;nan
9091;BME280;4581;42.416;25.598;2023-07-22T06:20:01;98336.56;;;29.21;nan
9091;BME280;4581;42.416;25.598;2023-07-22T06:22:27;98329.78;;;29.33;nan
9091;BME280;4581;42.416;25.598;2023-07-22T06:24:54;98329.13;;;29.17;nan
9091;BME280;4581;42.416;25.598;2023-07-22T06:27:21;98329.69;;;29.38;nan
9091;BME280;4581;42.416;25.598;2023-07-22T06:29:48;98328.25;;;28.84;nan
9091;BME280;4581;42.416;25.598;2023-07-22T06:32:16;98329.59;;;28.87;nan
9091;BME280;4581;42.416;25.598;2023-07-22T06:34:43;98340.84;;;28.76;nan
9091;BME280;4581;42.416;25.598;2023-07-22T06:37:10;98324.78;;;28.73;nan
9091;BME280;4581;42.416;25.598;2023-07-22T06:39:36;98331.47;;;29.10;nan
9091;BME280;4581;42.416;25.598;2023-07-22T06:42:03;98345.44;;;29.05;nan
9091;BME280;4581;42.416;25.598;2023-07-22T06:44:31;98344.91;;;29.03;nan
9091;BME280;4581;42.416;25.598;2023-07-22T06:46:59;98340.84;;;28.76;nan
9091;BME280;4581;42.416;25.598;2023-07-22T06:49:25;98343.19;;;28.88;nan
9091;BME280;4581;42.416;25.598;2023-07-22T06:51:52;98349.56;;;29.26;nan
9091;BME280;4581;42.416;25.598;2023-07-22T06:54:19;98340.94;;;29.46;nan
9091;BME280;4581;42.416;25.598;2023-07-22T06:56:46;98292.72;;;29.37;nan
9091;BME280;4581;42.416;25.598;2023-07-22T06:59:12;98336.41;;;29.69;nan
9091;BME280;4581;42.416;25.598;2023-07-22T07:01:39;98340.59;;;29.99;nan
9091;BME280;4581;42.416;25.598;2023-07-22T07:04:07;98343.91;;;30.14;nan
9091;BME280;4581;42.416;25.598;2023-07-22T07:06:34;98343.94;;;30.28;nan
9091;BME280;4581;42.416;25.598;2023-07-22T07:09:01;98350.13;;;30.25;nan
9091;BME280;4581;42.416;25.598;2023-07-22T07:11:29;98352.03;;;30.43;nan
9091;BME280;4581;42.416;25.598;2023-07-22T07:13:56;98345.94;;;30.69;nan
9091;BME280;4581;42.416;25.598;2023-07-22T07:16:28;98360.84;;;30.86;nan
9091;BME280;4581;42.416;25.598;2023-07-22T07:18:55;98354.03;;;31.06;nan
9091;BME280;4581;42.416;25.598;2023-07-22T07:21:23;98344.19;;;31.22;nan
9091;BME280;4581;42.416;25.598;2023-07-22T07:23:51;98347.38;;;31.29;nan
9091;BME280;4581;42.416;25.598;2023-07-22T07:26:18;98346.22;;;31.30;nan
9091;BME280;4581;42.416;25.598;2023-07-22T07:28:46;98356.03;;;31.64;nan
9091;BME280;4581;42.416;25.598;2023-07-22T07:31:13;98357.19;;;31.63;nan
9091;BME280;4581;42.416;25.598;2023-07-22T07:33:40;98362.16;;;31.66;nan
9091;BME280;4581;42.416;25.598;2023-07-22T07:36:07;98373.22;;;31.79;nan
9091;BME280;4581;42.416;25.598;2023-07-22T07:38:33;98386.81;;;32.03;nan
9091;BME280;4581;42.416;25.598;2023-07-22T07:41:03;98378.97;;;32.05;nan
9091;BME280;4581;42.416;25.598;2023-07-22T07:43:30;98380.03;;;32.09;nan
9091;BME280;4581;42.416;25.598;2023-07-22T07:48:45;98366.66;;;32.28;nan
9091;BME280;4581;42.416;25.598;2023-07-22T07:51:16;98364.41;;;32.08;nan
9091;BME280;4581;42.416;25.598;2023-07-22T07:53:43;98355.19;;;32.30;nan
9091;BME280;4581;42.416;25.598;2023-07-22T07:56:11;98356.03;;;32.39;nan
9091;BME280;4581;42.416;25.598;2023-07-22T07:58:39;98344.81;;;32.30;nan
9091;BME280;4581;42.416;25.598;2023-07-22T08:01:06;98346.13;;;32.24;nan
9091;BME280;4581;42.416;25.598;2023-07-22T08:03:35;98349.50;;;32.13;nan
9091;BME280;4581;42.416;25.598;2023-07-22T08:06:02;98358.88;;;32.17;nan
9091;BME280;4581;42.416;25.598;2023-07-22T08:08:29;98345.50;;;31.83;nan
9091;BME280;4581;42.416;25.598;2023-07-22T08:11:13;98356.09;;;32.17;nan
9091;BME280;4581;42.416;25.598;2023-07-22T08:13:41;98349.69;;;32.16;nan
9091;BME280;4581;42.416;25.598;2023-07-22T08:16:11;98353.47;;;31.98;nan
9091;BME280;4581;42.416;25.598;2023-07-22T08:18:38;98348.50;;;32.09;nan
9091;BME280;4581;42.416;25.598;2023-07-22T08:21:06;98351.88;;;32.28;nan
9091;BME280;4581;42.416;25.598;2023-07-22T08:23:36;98344.88;;;32.47;nan
9091;BME280;4581;42.416;25.598;2023-07-22T08:26:04;98347.19;;;32.85;nan
9091;BME280;4581;42.416;25.598;2023-07-22T08:28:33;98342.25;;;32.99;nan
9091;BME280;4581;42.416;25.598;2023-07-22T08:31:00;98345.28;;;33.28;nan
9091;BME280;4581;42.416;25.598;2023-07-22T08:33:27;98336.41;;;33.44;nan
9091;BME280;4581;42.416;25.598;2023-07-22T08:36:06;98326.22;;;33.48;nan
9091;BME280;4581;42.416;25.598;2023-07-22T08:38:33;98337.19;;;33.87;nan
9091;BME280;4581;42.416;25.598;2023-07-22T08:40:59;98330.00;;;33.52;nan
9091;BME280;4581;42.416;25.598;2023-07-22T08:43:28;98330.34;;;33.50;nan
9091;BME280;4581;42.416;25.598;2023-07-22T08:45:59;98323.50;;;32.91;nan
9091;BME280;4581;42.416;25.598;2023-07-22T08:48:30;98318.81;;;33.34;nan
9091;BME280;4581;42.416;25.598;2023-07-22T08:51:06;98318.31;;;33.50;nan
9091;BME280;4581;42.416;25.598;2023-07-22T08:53:33;98311.41;;;33.38;nan
9091;BME280;4581;42.416;25.598;2023-07-22T08:56:01;98312.41;;;33.34;nan
9091;BME280;4581;42.416;25.598;2023-07-22T08:58:29;98306.47;;;33.18;nan
9091;BME280;4581;42.416;25.598;2023-07-22T09:00:56;98305.28;;;33.02;nan
9091;BME280;4581;42.416;25.598;2023-07-22T09:03:23;98294.31;;;33.14;nan
9091;BME280;4581;42.416;25.598;2023-07-22T09:05:50;98313.56;;;33.33;nan
9091;BME280;4581;42.416;25.598;2023-07-22T09:08:18;98301.41;;;33.37;nan
9091;BME280;4581;42.416;25.598;2023-07-22T09:10:45;98300.22;;;33.64;nan
9091;BME280;4581;42.416;25.598;2023-07-22T09:13:18;98305.97;;;33.76;nan
9091;BME280;4581;42.416;25.598;2023-07-22T09:15:46;98301.16;;;33.94;nan
9091;BME280;4581;42.416;25.598;2023-07-22T09:18:15;98301.78;;;34.00;nan
9091;BME280;4581;42.416;25.598;2023-07-22T09:20:42;98299.72;;;33.71;nan
9091;BME280;4581;42.416;25.598;2023-07-22T09:23:09;98293.44;;;33.82;nan
9091;BME280;4581;42.416;25.598;2023-07-22T09:25:40;98293.09;;;33.93;nan
9091;BME280;4581;42.416;25.598;2023-07-22T09:28:08;98278.16;;;33.80;nan
9091;BME280;4581;42.416;25.598;2023-07-22T09:30:38;98284.03;;;33.87;nan
9091;BME280;4581;42.416;25.598;2023-07-22T09:33:21;98290.88;;;34.07;nan
9091;BME280;4581;42.416;25.598;2023-07-22T09:35:49;98293.03;;;34.18;nan
9091;BME280;4581;42.416;25.598;2023-07-22T09:38:24;98285.25;;;34.24;nan
9091;BME280;4581;42.416;25.598;2023-07-22T09:40:51;98291.78;;;34.37;nan
9091;BME280;4581;42.416;25.598;2023-07-22T09:43:18;98272.78;;;34.13;nan
9091;BME280;4581;42.416;25.598;2023-07-22T09:45:48;98275.47;;;34.39;nan
9091;BME280;4581;42.416;25.598;2023-07-22T09:48:16;98267.84;;;34.48;nan
9091;BME280;4581;42.416;25.598;2023-07-22T09:50:43;98269.44;;;34.66;nan
9091;BME280;4581;42.416;25.598;2023-07-22T09:53:15;98277.22;;;34.81;nan
9091;BME280;4581;42.416;25.598;2023-07-22T09:55:42;98277.28;;;34.72;nan
9091;BME280;4581;42.416;25.598;2023-07-22T09:58:09;98270.38;;;34.70;nan
9091;BME280;4581;42.416;25.598;2023-07-22T10:00:38;98273.44;;;35.06;nan
9091;BME280;4581;42.416;25.598;2023-07-22T10:03:09;98276.66;;;35.38;nan
9091;BME280;4581;42.416;25.598;2023-07-22T10:05:38;98269.31;;;35.04;nan
9091;BME280;4581;42.416;25.598;2023-07-22T10:08:06;98256.72;;;34.68;nan
9091;BME280;4581;42.416;25.598;2023-07-22T10:10:39;98257.09;;;34.58;nan
9091;BME280;4581;42.416;25.598;2023-07-22T10:13:06;98253.09;;;34.68;nan
9091;BME280;4581;42.416;25.598;2023-07-22T10:15:33;98251.38;;;34.75;nan
9091;BME280;4581;42.416;25.598;2023-07-22T10:18:02;98242.97;;;34.75;nan
9091;BME280;4581;42.416;25.598;2023-07-22T10:20:29;98249.28;;;35.35;nan
9091;BME280;4581;42.416;25.598;2023-07-22T10:22:58;98246.91;;;35.25;nan
9091;BME280;4581;42.416;25.598;2023-07-22T10:25:25;98237.66;;;35.57;nan
9091;BME280;4581;42.416;25.598;2023-07-22T10:27:52;98231.44;;;35.84;nan
9091;BME280;4581;42.416;25.598;2023-07-22T10:30:19;98235.06;;;35.73;nan
9091;BME280;4581;42.416;25.598;2023-07-22T10:32:50;98227.63;;;36.01;nan
9091;BME280;4581;42.416;25.598;2023-07-22T10:38:16;98233.97;;;36.71;nan
9091;BME280;4581;42.416;25.598;2023-07-22T10:43:15;98234.94;;;35.69;nan
9091;BME280;4581;42.416;25.598;2023-07-22T10:45:52;98226.38;;;36.23;nan
9091;BME280;4581;42.416;25.598;2023-07-22T10:48:19;98229.41;;;36.42;nan
9091;BME280;4581;42.416;25.598;2023-07-22T10:50:48;98240.28;;;36.43;nan
9091;BME280;4581;42.416;25.598;2023-07-22T11:04:24;98230.25;;;36.18;nan
9091;BME280;4581;42.416;25.598;2023-07-22T11:07:05;98218.31;;;36.57;nan
9091;BME280;4581;42.416;25.598;2023-07-22T11:09:36;98209.47;;;36.83;nan
9091;BME280;4581;42.416;25.598;2023-07-22T11:12:16;98212.94;;;37.04;nan
9091;BME280;4581;42.416;25.598;2023-07-22T11:14:48;98215.75;;;36.92;nan
9091;BME280;4581;42.416;25.598;2023-07-22T11:17:16;98204.03;;;37.02;nan
9091;BME280;4581;42.416;25.598;2023-07-22T11:19:44;98205.63;;;37.03;nan
9091;BME280;4581;42.416;25.598;2023-07-22T11:22:11;98200.97;;;37.08;nan
9091;BME280;4581;42.416;25.598;2023-07-22T11:24:38;98194.91;;;36.93;nan
9091;BME280;4581;42.416;25.598;2023-07-22T11:27:09;98199.56;;;37.14;nan
9091;BME280;4581;42.416;25.598;2023-07-22T11:29:36;98204.00;;;37.15;nan
9091;BME280;4581;42.416;25.598;2023-07-22T11:32:04;98194.91;;;37.06;nan
9091;BME280;4581;42.416;25.598;2023-07-22T11:34:31;98188.50;;;37.21;nan
9091;BME280;4581;42.416;25.598;2023-07-22T11:36:58;98180.22;;;37.12;nan
9091;BME280;4581;42.416;25.598;2023-07-22T11:39:26;98187.16;;;37.02;nan
9091;BME280;4581;42.416;25.598;2023-07-22T11:41:53;98184.72;;;37.29;nan
9091;BME280;4581;42.416;25.598;2023-07-22T11:44:22;98185.44;;;37.54;nan
9091;BME280;4581;42.416;25.598;2023-07-22T11:49:35;98186.72;;;37.44;nan
9091;BME280;4581;42.416;25.598;2023-07-22T11:54:36;98175.47;;;37.44;nan
9091;BME280;4581;42.416;25.598;2023-07-22T11:57:29;98192.47;;;37.75;nan
9091;BME280;4581;42.416;25.598;2023-07-22T11:59:56;98176.75;;;37.90;nan
9091;BME280;4581;42.416;25.598;2023-07-22T12:02:25;98179.56;;;38.06;nan
9091;BME280;4581;42.416;25.598;2023-07-22T12:04:55;98169.88;;;38.03;nan
9091;BME280;4581;42.416;25.598;2023-07-22T12:09:55;98171.09;;;38.21;nan
9091;BME280;4581;42.416;25.598;2023-07-22T12:12:34;98164.22;;;38.19;nan
9091;BME280;4581;42.416;25.598;2023-07-22T12:15:12;98162.75;;;38.09;nan
9091;BME280;4581;42.416;25.598;2023-07-22T12:20:19;98155.22;;;38.64;nan
9091;BME280;4581;42.416;25.598;2023-07-22T12:22:46;98154.34;;;38.44;nan
9091;BME280;4581;42.416;25.598;2023-07-22T12:25:12;98152.09;;;38.34;nan
9091;BME280;4581;42.416;25.598;2023-07-22T12:27:39;98149.19;;;38.30;nan
9091;BME280;4581;42.416;25.598;2023-07-22T12:30:06;98157.22;;;38.13;nan
9091;BME280;4581;42.416;25.598;2023-07-22T12:32:34;98151.38;;;38.21;nan
9091;BME280;4581;42.416;25.598;2023-07-22T12:35:01;98148.66;;;38.25;nan
9091;BME280;4581;42.416;25.598;2023-07-22T12:37:29;98146.72;;;38.29;nan
9091;BME280;4581;42.416;25.598;2023-07-22T12:39:56;98127.59;;;38.19;nan
9091;BME280;4581;42.416;25.598;2023-07-22T12:42:23;98132.81;;;38.36;nan
9091;BME280;4581;42.416;25.598;2023-07-22T12:44:51;98134.56;;;38.25;nan
9091;BME280;4581;42.416;25.598;2023-07-22T12:47:17;98128.59;;;38.11;nan
9091;BME280;4581;42.416;25.598;2023-07-22T12:49:44;98125.78;;;38.11;nan
9091;BME280;4581;42.416;25.598;2023-07-22T12:52:11;98129.13;;;38.16;nan
9091;BME280;4581;42.416;25.598;2023-07-22T12:54:38;98120.34;;;38.37;nan
9091;BME280;4581;42.416;25.598;2023-07-22T12:57:05;98133.25;;;38.38;nan
9091;BME280;4581;42.416;25.598;2023-07-22T12:59:32;98124.63;;;38.12;nan
9091;BME280;4581;42.416;25.598;2023-07-22T13:01:59;98109.81;;;37.83;nan
9091;BME280;4581;42.416;25.598;2023-07-22T13:04:25;98115.16;;;38.04;nan
9091;BME280;4581;42.416;25.598;2023-07-22T13:06:52;98116.06;;;37.77;nan
9091;BME280;4581;42.416;25.598;2023-07-22T13:09:19;98109.69;;;37.80;nan
9091;BME280;4581;42.416;25.598;2023-07-22T13:11:46;98111.63;;;37.91;nan
9091;BME280;4581;42.416;25.598;2023-07-22T13:14:13;98107.09;;;38.03;nan
9091;BME280;4581;42.416;25.598;2023-07-22T13:16:40;98103.53;;;37.90;nan
9091;BME280;4581;42.416;25.598;2023-07-22T13:19:07;98108.53;;;37.81;nan
9091;BME280;4581;42.416;25.598;2023-07-22T13:21:34;98095.63;;;38.11;nan
9091;BME280;4581;42.416;25.598;2023-07-22T13:24:01;98088.38;;;38.29;nan
9091;BME280;4581;42.416;25.598;2023-07-22T13:26:27;98090.66;;;38.24;nan
9091;BME280;4581;42.416;25.598;2023-07-22T13:28:54;98082.44;;;38.15;nan
9091;BME280;4581;42.416;25.598;2023-07-22T13:31:21;98089.69;;;38.16;nan
9091;BME280;4581;42.416;25.598;2023-07-22T13:33:48;98093.38;;;38.01;nan
9091;BME280;4581;42.416;25.598;2023-07-22T13:36:14;98096.91;;;37.82;nan
9091;BME280;4581;42.416;25.598;2023-07-22T13:38:41;98104.28;;;37.87;nan
9091;BME280;4581;42.416;25.598;2023-07-22T13:41:08;98101.63;;;37.78;nan
9091;BME280;4581;42.416;25.598;2023-07-22T13:43:34;98093.38;;;37.70;nan
9091;BME280;4581;42.416;25.598;2023-07-22T13:46:01;98086.03;;;37.65;nan
9091;BME280;4581;42.416;25.598;2023-07-22T13:48:28;98083.53;;;37.48;nan
9091;BME280;4581;42.416;25.598;2023-07-22T13:50:55;98071.84;;;37.46;nan
9091;BME280;4581;42.416;25.598;2023-07-22T13:53:21;98083.53;;;37.48;nan
9091;BME280;4581;42.416;25.598;2023-07-22T13:55:48;98078.19;;;37.43;nan
9091;BME280;4581;42.416;25.598;2023-07-22T13:58:18;98084.16;;;37.26;nan
9091;BME280;4581;42.416;25.598;2023-07-22T14:00:44;98085.88;;;37.15;nan
9091;BME280;4581;42.416;25.598;2023-07-22T14:03:11;98074.63;;;37.15;nan
9091;BME280;4581;42.416;25.598;2023-07-22T14:05:38;98068.44;;;37.09;nan